createdAt,value
2023-03-25T00:01:17.668Z,7.20
2023-03-25T00:03:50.422Z,7.13
2023-03-25T00:06:17.400Z,7.13
2023-03-25T00:08:44.288Z,7.09
2023-03-25T00:11:10.984Z,7.09
2023-03-25T00:13:37.715Z,7.12
2023-03-25T00:16:04.818Z,7.06
2023-03-25T00:18:35.385Z,7.04
2023-03-25T00:21:02.872Z,7.03
2023-03-25T00:23:31.099Z,7.00
2023-03-25T00:26:01.356Z,7.00
2023-03-25T00:28:30.851Z,6.98
2023-03-25T00:31:16.007Z,7.02
2023-03-25T00:33:42.759Z,7.11
2023-03-25T00:36:13.672Z,7.13
2023-03-25T00:38:41.843Z,7.14
2023-03-25T00:41:13.138Z,7.14
2023-03-25T00:43:40.459Z,7.18
2023-03-25T00:46:07.157Z,7.08
2023-03-25T00:48:33.813Z,7.05
2023-03-25T00:51:07.409Z,7.04
2023-03-25T00:53:35.613Z,7.03
2023-03-25T00:56:02.943Z,7.05
2023-03-25T00:58:29.756Z,7.13
2023-03-25T01:00:57.759Z,7.10
2023-03-25T01:03:31.013Z,7.03
2023-03-25T01:05:58.021Z,6.97
2023-03-25T01:08:25.773Z,6.96
2023-03-25T01:10:54.363Z,7.02
2023-03-25T01:13:23.040Z,6.95
2023-03-25T01:15:50.046Z,6.88
2023-03-25T01:18:16.921Z,6.85
2023-03-25T01:20:44.248Z,6.80
2023-03-25T01:23:11.248Z,6.78
2023-03-25T01:25:37.958Z,6.74
2023-03-25T01:28:05.493Z,6.78
2023-03-25T01:30:33.431Z,6.71
2023-03-25T01:33:00.362Z,6.73
2023-03-25T01:35:27.086Z,6.76
2023-03-25T01:37:55.850Z,6.77
2023-03-25T01:40:24.412Z,6.76
2023-03-25T01:42:51.661Z,6.78
2023-03-25T01:45:26.900Z,6.75
2023-03-25T01:48:13.235Z,6.77
2023-03-25T01:50:42.949Z,6.68
2023-03-25T01:53:10.345Z,6.69
2023-03-25T01:55:38.269Z,6.65
2023-03-25T01:58:10.616Z,6.63
2023-03-25T02:00:40.296Z,6.60
2023-03-25T02:03:09.261Z,6.55
2023-03-25T02:05:52.134Z,6.40
2023-03-25T02:08:19.210Z,6.46
2023-03-25T02:10:50.020Z,6.54
2023-03-25T02:13:17.417Z,6.44
2023-03-25T02:16:07.018Z,6.41
2023-03-25T02:19:10.670Z,6.30
2023-03-25T02:21:58.105Z,6.28
2023-03-25T02:25:05.468Z,6.18
2023-03-25T02:27:42.017Z,6.21
2023-03-25T02:30:13.448Z,6.10
2023-03-25T02:33:00.034Z,6.10
2023-03-25T02:35:43.758Z,6.08
2023-03-25T02:38:26.182Z,6.16
2023-03-25T02:41:25.915Z,6.18
2023-03-25T02:44:12.259Z,6.21
2023-03-25T02:46:42.036Z,6.22
2023-03-25T02:49:12.003Z,6.27
2023-03-25T02:51:50.567Z,6.27
2023-03-25T02:54:22.109Z,6.28
2023-03-25T02:56:51.885Z,6.48
2023-03-25T02:59:19.485Z,6.52
2023-03-25T03:01:50.804Z,6.65
2023-03-25T03:04:17.606Z,6.65
2023-03-25T03:06:44.512Z,6.69
2023-03-25T03:09:23.040Z,6.82
2023-03-25T03:11:56.920Z,6.85
2023-03-25T03:14:42.336Z,6.93
2023-03-25T03:17:30.241Z,6.89
2023-03-25T03:20:19.957Z,6.96
2023-03-25T03:22:56.530Z,7.06
2023-03-25T03:25:30.913Z,7.10
2023-03-25T03:28:27.658Z,7.14
2023-03-25T03:31:06.691Z,7.29
2023-03-25T03:33:39.024Z,7.33
2023-03-25T03:36:08.988Z,7.37
2023-03-25T03:38:41.758Z,7.38
2023-03-25T03:41:11.564Z,7.41
2023-03-25T03:44:02.802Z,7.51
2023-03-25T03:46:51.212Z,7.51
2023-03-25T03:49:22.130Z,7.49
2023-03-25T03:52:17.128Z,7.44
2023-03-25T03:55:06.613Z,7.54
2023-03-25T03:57:38.493Z,7.49
2023-03-25T04:00:09.902Z,7.46
2023-03-25T04:02:52.901Z,7.39
2023-03-25T04:05:21.400Z,7.36
2023-03-25T04:08:00.570Z,7.39
2023-03-25T04:10:34.863Z,7.49
2023-03-25T04:13:04.627Z,7.41
2023-03-25T04:15:31.482Z,7.42
2023-03-25T04:17:58.098Z,7.41
2023-03-25T04:20:26.098Z,7.32
2023-03-25T04:22:52.741Z,7.40
2023-03-25T04:25:21.458Z,7.33
2023-03-25T04:27:53.683Z,7.30
2023-03-25T04:30:21.591Z,7.29
2023-03-25T04:32:48.286Z,7.30
2023-03-25T04:35:16.935Z,7.26
2023-03-25T04:37:45.749Z,7.29
2023-03-25T04:40:19.221Z,7.28
2023-03-25T04:42:46.683Z,7.23
2023-03-25T04:45:16.766Z,7.25
2023-03-25T04:47:47.148Z,7.22
2023-03-25T04:50:22.771Z,7.26
2023-03-25T04:52:50.556Z,7.18
2023-03-25T04:55:20.551Z,7.27
2023-03-25T04:57:48.624Z,7.24
2023-03-25T05:00:18.159Z,7.24
2023-03-25T05:02:49.551Z,7.28
2023-03-25T05:05:21.759Z,7.28
2023-03-25T05:07:58.259Z,7.18
2023-03-25T05:10:29.023Z,7.15
2023-03-25T05:13:00.288Z,7.05
2023-03-25T05:15:26.974Z,7.00
2023-03-25T05:17:53.648Z,7.03
2023-03-25T05:20:22.539Z,7.06
2023-03-25T05:22:49.147Z,7.15
2023-03-25T05:25:18.148Z,7.18
2023-03-25T05:27:46.344Z,7.09
2023-03-25T05:30:13.012Z,7.18
2023-03-25T05:32:41.283Z,7.14
2023-03-25T05:35:08.546Z,7.12
2023-03-25T05:37:35.286Z,7.11
2023-03-25T05:40:02.303Z,7.10
2023-03-25T05:42:28.894Z,7.25
2023-03-25T05:44:55.501Z,7.27
2023-03-25T05:47:24.366Z,7.34
2023-03-25T05:49:52.376Z,7.31
2023-03-25T05:52:19.929Z,7.30
2023-03-25T05:54:50.601Z,7.38
2023-03-25T05:57:17.502Z,7.31
2023-03-25T05:59:44.122Z,7.36
2023-03-25T06:02:15.557Z,7.39
2023-03-25T06:04:42.889Z,7.37
2023-03-25T06:07:14.290Z,7.31
2023-03-25T06:09:46.172Z,7.41
2023-03-25T06:12:17.783Z,7.46
2023-03-25T06:14:45.849Z,7.49
2023-03-25T06:17:14.082Z,7.51
2023-03-25T06:19:40.666Z,7.45
2023-03-25T06:22:11.174Z,7.67
2023-03-25T06:24:41.286Z,7.84
2023-03-25T06:27:12.492Z,7.94
2023-03-25T06:29:41.192Z,8.02
2023-03-25T06:32:09.115Z,8.05
2023-03-25T06:34:35.788Z,7.96
2023-03-25T06:37:02.468Z,7.95
2023-03-25T06:39:33.700Z,7.95
2023-03-25T06:42:01.003Z,8.03
2023-03-25T06:44:27.879Z,8.07
2023-03-25T06:46:54.605Z,8.10
2023-03-25T06:49:21.541Z,8.07
2023-03-25T06:51:48.670Z,8.12
2023-03-25T06:54:15.624Z,8.09
2023-03-25T06:56:42.343Z,8.18
2023-03-25T06:59:08.973Z,8.09
2023-03-25T07:01:35.675Z,8.10
2023-03-25T07:04:02.849Z,8.21
2023-03-25T07:06:29.605Z,8.25
2023-03-25T07:08:56.233Z,8.21
2023-03-25T07:11:29.271Z,8.39
2023-03-25T07:13:56.188Z,8.56
2023-03-25T07:16:23.308Z,8.91
2023-03-25T07:18:50.971Z,9.23
2023-03-25T07:21:18.281Z,9.43
2023-03-25T07:23:45.234Z,9.50
2023-03-25T07:26:13.459Z,9.55
2023-03-25T07:28:40.824Z,9.55
2023-03-25T07:31:09.018Z,9.53
2023-03-25T07:33:36.393Z,9.49
2023-03-25T07:36:04.678Z,9.57
2023-03-25T07:38:31.406Z,9.74
2023-03-25T07:40:58.204Z,9.91
2023-03-25T07:43:24.904Z,10.01
2023-03-25T07:45:51.508Z,10.20
2023-03-25T07:48:18.158Z,10.05
2023-03-25T07:50:46.064Z,9.91
2023-03-25T07:53:12.778Z,9.99
2023-03-25T07:55:39.493Z,10.07
2023-03-25T07:58:06.168Z,10.13
2023-03-25T08:00:32.838Z,10.32
2023-03-25T08:02:59.551Z,10.37
2023-03-25T08:05:26.254Z,10.39
2023-03-25T08:07:53.042Z,10.39
2023-03-25T08:10:19.821Z,10.36
2023-03-25T08:12:46.574Z,10.40
2023-03-25T08:15:13.482Z,10.39
2023-03-25T08:17:40.713Z,10.46
2023-03-25T08:20:07.692Z,10.62
2023-03-25T08:22:34.532Z,10.70
2023-03-25T08:25:01.271Z,10.90
2023-03-25T08:27:27.954Z,11.04
2023-03-25T08:29:57.434Z,10.96
2023-03-25T08:32:25.047Z,11.12
2023-03-25T08:34:51.715Z,11.28
2023-03-25T08:37:18.758Z,11.39
2023-03-25T08:39:45.940Z,11.30
2023-03-25T08:42:13.711Z,11.30
2023-03-25T08:44:40.549Z,11.22
2023-03-25T08:47:07.291Z,11.24
2023-03-25T08:49:33.914Z,11.13
2023-03-25T08:52:01.813Z,10.97
2023-03-25T08:54:29.200Z,10.87
2023-03-25T08:56:56.083Z,10.97
2023-03-25T08:59:22.847Z,10.97
2023-03-25T09:01:49.518Z,10.76
2023-03-25T09:04:16.293Z,10.72
2023-03-25T09:06:47.679Z,10.63
2023-03-25T09:09:29.923Z,10.50
2023-03-25T09:11:56.622Z,10.66
2023-03-25T09:14:23.229Z,10.77
2023-03-25T09:16:50.030Z,10.95
2023-03-25T09:19:16.751Z,11.22
2023-03-25T09:21:43.389Z,11.37
2023-03-25T09:24:10.023Z,11.43
2023-03-25T09:26:37.167Z,11.48
2023-03-25T09:29:04.061Z,11.52
2023-03-25T09:31:30.749Z,11.53
2023-03-25T09:33:57.455Z,11.52
2023-03-25T09:36:24.108Z,11.40
2023-03-25T09:38:50.896Z,11.44
2023-03-25T09:41:33.945Z,11.44
2023-03-25T09:44:07.178Z,11.44
2023-03-25T09:46:33.938Z,11.51
2023-03-25T09:49:00.709Z,11.53
2023-03-25T09:51:33.742Z,11.51
2023-03-25T09:54:26.079Z,11.63
2023-03-25T09:56:55.173Z,11.74
2023-03-25T09:59:24.066Z,11.71
2023-03-25T10:02:07.231Z,11.43
2023-03-25T10:04:39.547Z,11.34
2023-03-25T10:07:47.967Z,11.30
2023-03-25T10:10:23.480Z,11.26
2023-03-25T10:13:19.990Z,11.20
2023-03-25T10:16:07.857Z,11.26
2023-03-25T10:18:40.944Z,11.31
2023-03-25T10:21:23.022Z,11.32
2023-03-25T10:24:04.027Z,11.32
2023-03-25T10:26:44.337Z,11.35
2023-03-25T10:29:14.780Z,11.42
2023-03-25T10:31:53.206Z,11.47
2023-03-25T10:34:25.592Z,11.55
2023-03-25T10:36:57.710Z,11.69
2023-03-25T10:39:33.900Z,12.15
2023-03-25T10:42:04.827Z,12.53
2023-03-25T10:44:31.423Z,12.53
2023-03-25T10:47:06.125Z,12.56
2023-03-25T10:49:33.978Z,12.66
2023-03-25T10:52:01.626Z,12.55
2023-03-25T10:54:38.229Z,12.78
2023-03-25T10:57:16.045Z,12.60
2023-03-25T10:59:47.332Z,12.39
2023-03-25T11:02:17.678Z,12.06
2023-03-25T11:04:44.769Z,12.06
2023-03-25T11:07:38.552Z,12.57
2023-03-25T11:10:21.417Z,13.09
2023-03-25T11:12:51.634Z,13.59
2023-03-25T11:15:44.709Z,13.81
2023-03-25T11:18:21.593Z,14.12
2023-03-25T11:20:50.180Z,14.20
2023-03-25T11:23:28.275Z,14.19
2023-03-25T11:25:55.735Z,14.28
2023-03-25T11:28:40.347Z,14.28
2023-03-25T11:31:10.110Z,14.13
2023-03-25T11:33:37.623Z,13.92
2023-03-25T11:36:31.803Z,13.69
2023-03-25T11:39:10.122Z,13.35
2023-03-25T11:41:37.953Z,13.26
2023-03-25T11:44:05.909Z,12.95
2023-03-25T11:46:34.382Z,13.10
2023-03-25T11:49:12.113Z,12.91
2023-03-25T11:51:39.112Z,12.65
2023-03-25T11:54:12.246Z,12.60
2023-03-25T11:56:41.216Z,12.47
2023-03-25T11:59:19.583Z,12.47
2023-03-25T12:01:48.309Z,12.58
2023-03-25T12:04:23.118Z,12.75
2023-03-25T12:06:54.226Z,13.11
2023-03-25T12:09:21.005Z,13.12
2023-03-25T12:11:56.863Z,13.13
2023-03-25T12:14:32.366Z,13.14
2023-03-25T12:17:27.291Z,13.27
2023-03-25T12:20:08.263Z,13.15
2023-03-25T12:22:50.315Z,13.13
2023-03-25T12:25:38.364Z,12.96
2023-03-25T12:28:24.272Z,12.92
2023-03-25T12:31:18.404Z,12.91
2023-03-25T12:34:06.291Z,12.91
2023-03-25T12:36:42.060Z,12.91
2023-03-25T12:39:35.650Z,12.78
2023-03-25T12:42:33.437Z,12.80
2023-03-25T12:45:17.571Z,12.72
2023-03-25T12:48:03.371Z,12.71
2023-03-25T12:50:50.112Z,12.49
2023-03-25T12:53:46.432Z,12.62
2023-03-25T12:56:43.406Z,12.91
2023-03-25T12:59:38.076Z,13.21
2023-03-25T13:02:38.555Z,12.98
2023-03-25T13:05:17.637Z,12.59
2023-03-25T13:07:47.605Z,12.28
2023-03-25T13:10:21.886Z,11.86
2023-03-25T13:12:54.125Z,11.87
2023-03-25T13:15:36.386Z,12.05
2023-03-25T13:18:10.988Z,12.10
2023-03-25T13:20:42.632Z,12.20
2023-03-25T13:23:13.797Z,12.35
2023-03-25T13:25:59.661Z,12.39
2023-03-25T13:28:38.596Z,12.59
2023-03-25T13:31:12.670Z,12.75
2023-03-25T13:33:44.512Z,12.81
2023-03-25T13:36:17.966Z,12.90
2023-03-25T13:38:53.707Z,12.98
2023-03-25T13:41:25.981Z,12.94
2023-03-25T13:44:07.805Z,12.84
2023-03-25T13:46:38.840Z,12.62
2023-03-25T13:49:22.657Z,12.39
2023-03-25T13:51:49.334Z,12.08
2023-03-25T13:54:23.315Z,12.20
2023-03-25T13:57:14.948Z,12.29
2023-03-25T14:00:12.264Z,12.13
2023-03-25T14:02:52.220Z,12.06
2023-03-25T14:05:52.708Z,11.94
2023-03-25T14:08:41.030Z,11.79
2023-03-25T14:11:19.040Z,11.69
2023-03-25T14:13:59.896Z,11.65
2023-03-25T14:16:33.220Z,11.55
2023-03-25T14:19:04.134Z,11.51
2023-03-25T14:21:51.541Z,11.52
2023-03-25T14:24:30.130Z,11.43
2023-03-25T14:27:01.966Z,11.36
2023-03-25T14:29:43.623Z,11.34
2023-03-25T14:32:16.275Z,11.26
2023-03-25T14:34:44.277Z,11.26
2023-03-25T14:37:17.759Z,11.21
2023-03-25T14:39:45.292Z,11.08
2023-03-25T14:42:24.620Z,10.95
2023-03-25T14:44:54.605Z,10.82
2023-03-25T14:47:32.146Z,10.75
2023-03-25T14:50:30.757Z,10.62
2023-03-25T14:53:06.394Z,10.34
2023-03-25T14:55:40.622Z,10.07
2023-03-25T14:58:14.201Z,9.78
2023-03-25T15:00:42.703Z,9.57
2023-03-25T15:03:12.689Z,9.51
2023-03-25T15:05:40.365Z,9.52
2023-03-25T15:08:06.918Z,9.75
2023-03-25T15:10:40.865Z,9.98
2023-03-25T15:13:21.645Z,10.13
2023-03-25T15:15:50.261Z,10.20
2023-03-25T15:18:31.863Z,10.29
2023-03-25T15:21:05.525Z,10.39
2023-03-25T15:23:37.623Z,10.39
2023-03-25T15:26:08.548Z,10.31
2023-03-25T15:28:52.758Z,10.35
2023-03-25T15:31:41.544Z,10.27
2023-03-25T15:34:29.446Z,10.32
2023-03-25T15:37:45.729Z,10.23
2023-03-25T15:40:26.639Z,10.20
2023-03-25T15:43:36.296Z,10.25
2023-03-25T15:46:10.976Z,10.24
2023-03-25T15:48:40.561Z,10.29
2023-03-25T15:51:13.660Z,10.22
2023-03-25T15:54:02.231Z,10.22
2023-03-25T15:56:34.753Z,10.19
2023-03-25T15:59:06.980Z,10.30
2023-03-25T16:01:39.426Z,10.38
2023-03-25T16:04:18.326Z,10.49
2023-03-25T16:06:48.058Z,10.47
2023-03-25T16:09:19.289Z,10.29
2023-03-25T16:11:46.705Z,10.18
2023-03-25T16:14:16.143Z,10.15
2023-03-25T16:16:54.283Z,10.04
2023-03-25T16:19:23.691Z,10.00
2023-03-25T16:21:52.399Z,9.94
2023-03-25T16:24:21.501Z,9.80
2023-03-25T16:26:49.534Z,9.82
2023-03-25T16:29:24.865Z,9.76
2023-03-25T16:31:58.394Z,9.77
2023-03-25T16:34:26.601Z,9.82
2023-03-25T16:36:54.729Z,10.01
2023-03-25T16:39:22.848Z,9.88
2023-03-25T16:41:51.275Z,9.46
2023-03-25T16:44:20.561Z,9.30
2023-03-25T16:46:48.060Z,9.29
2023-03-25T16:49:20.411Z,9.08
2023-03-25T16:51:47.284Z,9.19
2023-03-25T16:54:36.666Z,9.09
2023-03-25T16:57:06.872Z,8.95
2023-03-25T16:59:36.248Z,8.96
2023-03-25T17:02:04.702Z,8.97
2023-03-25T17:04:41.856Z,8.94
2023-03-25T17:07:12.987Z,8.97
2023-03-25T17:09:42.915Z,9.19
2023-03-25T17:12:14.871Z,9.09
2023-03-25T17:14:44.256Z,9.01
2023-03-25T17:17:42.273Z,8.97
2023-03-25T17:20:18.028Z,9.21
2023-03-25T17:23:00.754Z,9.23
2023-03-25T17:25:35.089Z,9.02
2023-03-25T17:28:24.866Z,8.56
2023-03-25T17:30:52.641Z,8.37
2023-03-25T17:33:35.189Z,8.24
2023-03-25T17:36:03.509Z,7.99
2023-03-25T17:38:34.166Z,7.85
2023-03-25T17:41:03.490Z,7.75
2023-03-25T17:43:32.002Z,7.63
2023-03-25T17:46:00.505Z,7.59
2023-03-25T17:48:27.932Z,7.57
2023-03-25T17:50:56.976Z,7.59
2023-03-25T17:53:23.828Z,7.67
2023-03-25T17:55:50.974Z,7.68
2023-03-25T17:58:18.246Z,7.55
2023-03-25T18:00:46.434Z,7.55
2023-03-25T18:03:18.781Z,7.51
2023-03-25T18:05:50.800Z,7.54
2023-03-25T18:08:17.726Z,7.55
2023-03-25T18:10:44.427Z,7.58
2023-03-25T18:13:11.448Z,7.51
2023-03-25T18:15:40.428Z,7.47
2023-03-25T18:18:13.954Z,7.47
2023-03-25T18:20:40.608Z,7.42
2023-03-25T18:23:07.352Z,7.36
2023-03-25T18:25:34.216Z,7.40
2023-03-25T18:28:01.152Z,7.36
2023-03-25T18:30:28.907Z,7.38
2023-03-25T18:32:56.140Z,7.36
2023-03-25T18:35:23.486Z,7.41
2023-03-25T18:37:50.299Z,7.40
2023-03-25T18:40:21.091Z,7.41
2023-03-25T18:42:48.068Z,7.52
2023-03-25T18:45:19.286Z,7.54
2023-03-25T18:47:46.038Z,7.53
2023-03-25T18:50:31.461Z,7.43
2023-03-25T18:52:58.969Z,7.43
2023-03-25T18:55:27.768Z,7.53
2023-03-25T18:57:54.863Z,7.53
2023-03-25T19:00:28.578Z,7.50
2023-03-25T19:02:55.993Z,7.51
2023-03-25T19:05:23.815Z,7.49
2023-03-25T19:07:50.719Z,7.51
2023-03-25T19:10:26.702Z,7.48
2023-03-25T19:12:53.283Z,7.59
2023-03-25T19:15:21.534Z,7.58
2023-03-25T19:17:48.852Z,7.55
2023-03-25T19:20:21.978Z,7.56
2023-03-25T19:22:48.853Z,7.48
2023-03-25T19:25:16.221Z,7.55
2023-03-25T19:27:43.311Z,7.55
2023-03-25T19:30:12.674Z,7.59
2023-03-25T19:32:39.462Z,7.67
2023-03-25T19:35:07.870Z,7.60
2023-03-25T19:37:35.400Z,7.64
2023-03-25T19:40:08.223Z,7.59
2023-03-25T19:42:38.855Z,7.53
2023-03-25T19:45:11.721Z,7.38
2023-03-25T19:47:42.106Z,7.31
2023-03-25T19:50:15.107Z,7.39
2023-03-25T19:52:43.471Z,7.33
2023-03-25T19:55:10.915Z,7.53
2023-03-25T19:57:38.539Z,7.49
2023-03-25T20:00:12.402Z,7.62
2023-03-25T20:02:40.907Z,7.66
2023-03-25T20:05:10.496Z,7.64
2023-03-25T20:07:38.449Z,7.61
2023-03-25T20:10:18.990Z,7.68
2023-03-25T20:12:47.707Z,7.69
2023-03-25T20:15:15.086Z,7.73
2023-03-25T20:17:41.854Z,7.60
2023-03-25T20:20:11.123Z,7.64
2023-03-25T20:22:38.734Z,7.66
2023-03-25T20:25:06.685Z,7.61
2023-03-25T20:27:33.402Z,7.69
2023-03-25T20:30:00.206Z,7.60
2023-03-25T20:32:37.745Z,7.57
2023-03-25T20:35:07.518Z,7.55
2023-03-25T20:37:36.783Z,7.70
2023-03-25T20:40:05.059Z,7.73
2023-03-25T20:42:31.729Z,7.75
2023-03-25T20:44:58.409Z,7.69
2023-03-25T20:47:25.087Z,7.59
2023-03-25T20:49:51.738Z,7.61
2023-03-25T20:52:18.452Z,7.65
2023-03-25T20:54:45.142Z,7.66
2023-03-25T20:57:12.558Z,7.65
2023-03-25T20:59:39.250Z,7.69
2023-03-25T21:02:06.105Z,7.58
2023-03-25T21:04:33.061Z,7.50
2023-03-25T21:06:59.696Z,7.54
2023-03-25T21:09:26.622Z,7.59
2023-03-25T21:11:53.339Z,7.50
2023-03-25T21:14:20.054Z,7.58
2023-03-25T21:16:46.979Z,7.57
2023-03-25T21:19:13.826Z,7.62
2023-03-25T21:21:42.579Z,7.63
2023-03-25T21:24:09.886Z,7.63
2023-03-25T21:26:36.483Z,7.67
2023-03-25T21:29:03.653Z,7.59
2023-03-25T21:31:33.000Z,7.55
2023-03-25T21:34:00.212Z,7.58
2023-03-25T21:36:29.078Z,7.59
2023-03-25T21:38:57.972Z,7.61
2023-03-25T21:41:25.603Z,7.53
2023-03-25T21:43:53.290Z,7.64
2023-03-25T21:46:27.553Z,7.67
2023-03-25T21:48:58.242Z,7.67
2023-03-25T21:51:26.496Z,7.64
2023-03-25T21:53:53.432Z,7.63
2023-03-25T21:56:24.644Z,7.66
2023-03-25T21:58:51.878Z,7.60
2023-03-25T22:01:23.263Z,7.62
2023-03-25T22:03:54.178Z,7.61
2023-03-25T22:06:29.956Z,7.65
2023-03-25T22:08:57.316Z,7.69
2023-03-25T22:11:29.091Z,7.65
2023-03-25T22:13:55.922Z,7.69
2023-03-25T22:16:24.081Z,7.63
2023-03-25T22:18:51.908Z,7.66
2023-03-25T22:21:21.626Z,7.68
2023-03-25T22:23:49.908Z,7.69
2023-03-25T22:26:17.524Z,7.67
2023-03-25T22:28:44.663Z,7.64
2023-03-25T22:31:16.965Z,7.68
2023-03-25T22:33:44.230Z,7.65
2023-03-25T22:36:15.777Z,7.67
2023-03-25T22:38:47.912Z,7.64
2023-03-25T22:41:16.706Z,7.59
2023-03-25T22:43:45.333Z,7.60
2023-03-25T22:46:12.863Z,7.58
2023-03-25T22:48:40.045Z,7.52
2023-03-25T22:51:07.874Z,7.53
2023-03-25T22:53:34.793Z,7.51
2023-03-25T22:56:03.968Z,7.46
2023-03-25T22:58:31.619Z,7.43
2023-03-25T23:01:06.255Z,7.52
2023-03-25T23:03:35.523Z,7.51
2023-03-25T23:06:07.708Z,7.53
2023-03-25T23:08:39.397Z,7.52
2023-03-25T23:11:22.070Z,7.50
2023-03-25T23:13:52.966Z,7.43
2023-03-25T23:16:24.848Z,7.45
2023-03-25T23:18:52.248Z,7.46
2023-03-25T23:21:24.066Z,7.44
2023-03-25T23:23:52.092Z,7.40
2023-03-25T23:26:36.423Z,7.45
2023-03-25T23:29:06.452Z,7.49
2023-03-25T23:31:36.890Z,7.52
2023-03-25T23:34:06.571Z,7.52
2023-03-25T23:36:36.678Z,7.53
2023-03-25T23:39:06.430Z,7.46
2023-03-25T23:41:36.168Z,7.50
2023-03-25T23:44:04.816Z,7.50
2023-03-25T23:46:32.380Z,7.50
2023-03-25T23:49:03.489Z,7.43
2023-03-25T23:51:36.768Z,7.51
2023-03-25T23:54:05.007Z,7.50
2023-03-25T23:56:32.122Z,7.42
2023-03-25T23:59:01.500Z,7.44
